createdAt,value
2023-02-19T00:01:36.928Z,101613.69
2023-02-19T00:04:06.102Z,101619.00
2023-02-19T00:06:35.138Z,101622.66
2023-02-19T00:09:02.744Z,101621.00
2023-02-19T00:11:31.602Z,101623.66
2023-02-19T00:14:00.411Z,101623.66
2023-02-19T00:16:30.483Z,101624.66
2023-02-19T00:18:58.978Z,101622.00
2023-02-19T00:21:26.510Z,101621.16
2023-02-19T00:23:55.521Z,101618.69
2023-02-19T00:26:22.781Z,101619.53
2023-02-19T00:28:52.618Z,101618.00
2023-02-19T00:31:21.423Z,101610.19
2023-02-19T00:33:51.819Z,101624.34
2023-02-19T00:36:19.080Z,101614.69
2023-02-19T00:38:46.163Z,101622.66
2023-02-19T00:41:20.338Z,101618.19
2023-02-19T00:43:49.193Z,101615.69
2023-02-19T00:46:17.127Z,101616.72
2023-02-19T00:48:48.943Z,101612.19
2023-02-19T00:51:17.193Z,101613.03
2023-02-19T00:53:44.095Z,101621.00
2023-02-19T00:56:11.267Z,101619.38
2023-02-19T00:58:38.401Z,101616.03
2023-02-19T01:01:06.511Z,101620.53
2023-02-19T01:03:33.774Z,101617.03
2023-02-19T01:06:01.201Z,101618.38
2023-02-19T01:08:31.301Z,101614.69
2023-02-19T01:10:58.803Z,101613.06
2023-02-19T01:13:26.328Z,101620.00
2023-02-19T01:15:55.213Z,101619.00
2023-02-19T01:18:22.215Z,101628.00
2023-02-19T01:20:49.105Z,101636.81
2023-02-19T01:23:15.933Z,101629.81
2023-02-19T01:25:44.027Z,101635.13
2023-02-19T01:28:11.483Z,101641.47
2023-02-19T01:30:39.118Z,101640.66
2023-02-19T01:33:06.742Z,101636.31
2023-02-19T01:35:34.023Z,101645.47
2023-02-19T01:38:00.824Z,101651.78
2023-02-19T01:40:27.571Z,101637.63
2023-02-19T01:42:55.849Z,101644.78
2023-02-19T01:45:27.126Z,101642.97
2023-02-19T01:48:02.087Z,101643.97
2023-02-19T01:50:32.067Z,101642.31
2023-02-19T01:53:04.336Z,101645.13
2023-02-19T01:55:32.028Z,101647.97
2023-02-19T01:58:01.874Z,101640.97
2023-02-19T02:00:29.029Z,101644.63
2023-02-19T02:02:58.078Z,101649.13
2023-02-19T02:05:35.451Z,101656.28
2023-02-19T02:08:22.386Z,101647.63
2023-02-19T02:10:50.435Z,101654.09
2023-02-19T02:13:20.127Z,101657.75
2023-02-19T02:15:55.405Z,101650.78
2023-02-19T02:18:31.624Z,101654.63
2023-02-19T02:21:27.111Z,101658.25
2023-02-19T02:24:10.251Z,101655.59
2023-02-19T02:26:49.130Z,101648.78
2023-02-19T02:29:37.089Z,101663.91
2023-02-19T02:32:11.583Z,101657.09
2023-02-19T02:34:45.937Z,101654.44
2023-02-19T02:37:15.614Z,101658.09
2023-02-19T02:39:45.814Z,101653.59
2023-02-19T02:42:28.114Z,101651.78
2023-02-19T02:45:14.107Z,101660.91
2023-02-19T02:47:47.663Z,101662.06
2023-02-19T02:50:18.523Z,101660.25
2023-02-19T02:53:06.486Z,101661.25
2023-02-19T02:55:40.898Z,101665.06
2023-02-19T02:58:08.326Z,101670.38
2023-02-19T03:00:55.581Z,101665.06
2023-02-19T03:03:26.779Z,101674.88
2023-02-19T03:05:58.900Z,101675.84
2023-02-19T03:08:29.620Z,101674.19
2023-02-19T03:11:20.827Z,101679.50
2023-02-19T03:14:06.185Z,101683.84
2023-02-19T03:16:55.789Z,101684.00
2023-02-19T03:19:27.560Z,101682.16
2023-02-19T03:21:55.617Z,101686.84
2023-02-19T03:24:45.773Z,101689.50
2023-02-19T03:27:14.302Z,101696.63
2023-02-19T03:29:43.221Z,101693.97
2023-02-19T03:32:15.336Z,101697.47
2023-02-19T03:34:48.948Z,101700.28
2023-02-19T03:37:24.660Z,101701.97
2023-02-19T03:39:53.654Z,101698.28
2023-02-19T03:42:36.980Z,101701.97
2023-02-19T03:45:21.782Z,101701.13
2023-02-19T03:47:55.361Z,101708.91
2023-02-19T03:50:27.866Z,101716.25
2023-02-19T03:53:08.265Z,101705.44
2023-02-19T03:55:44.605Z,101717.91
2023-02-19T03:58:16.968Z,101723.03
2023-02-19T04:00:49.803Z,101724.88
2023-02-19T04:03:21.869Z,101718.75
2023-02-19T04:05:55.254Z,101727.53
2023-02-19T04:08:24.933Z,101724.06
2023-02-19T04:10:53.810Z,101721.22
2023-02-19T04:13:25.555Z,101735.69
2023-02-19T04:15:54.324Z,101734.00
2023-02-19T04:18:26.473Z,101733.19
2023-02-19T04:20:55.667Z,101747.31
2023-02-19T04:23:26.546Z,101750.97
2023-02-19T04:26:08.188Z,101755.28
2023-02-19T04:28:35.478Z,101750.13
2023-02-19T04:31:02.391Z,101757.41
2023-02-19T04:33:29.146Z,101757.41
2023-02-19T04:35:57.320Z,101753.63
2023-02-19T04:38:24.169Z,101767.75
2023-02-19T04:40:51.544Z,101762.56
2023-02-19T04:43:18.856Z,101766.22
2023-02-19T04:45:45.698Z,101787.34
2023-02-19T04:48:12.480Z,101783.84
2023-02-19T04:50:39.916Z,101779.38
2023-02-19T04:53:08.088Z,101785.50
2023-02-19T04:55:37.939Z,101784.84
2023-02-19T04:58:04.870Z,101795.47
2023-02-19T05:00:31.832Z,101800.94
2023-02-19T05:02:58.654Z,101801.97
2023-02-19T05:05:25.502Z,101813.59
2023-02-19T05:07:52.259Z,101813.88
2023-02-19T05:10:20.446Z,101816.38
2023-02-19T05:12:47.494Z,101814.72
2023-02-19T05:15:14.236Z,101820.03
2023-02-19T05:17:41.114Z,101824.38
2023-02-19T05:20:09.029Z,101825.19
2023-02-19T05:22:35.818Z,101832.34
2023-02-19T05:25:02.616Z,101830.66
2023-02-19T05:27:32.037Z,101831.66
2023-02-19T05:29:58.825Z,101829.97
2023-02-19T05:32:25.643Z,101838.78
2023-02-19T05:34:52.407Z,101835.31
2023-02-19T05:37:19.213Z,101833.66
2023-02-19T05:39:45.948Z,101833.66
2023-02-19T05:42:15.349Z,101837.31
2023-02-19T05:44:43.644Z,101833.66
2023-02-19T05:47:10.884Z,101834.47
2023-02-19T05:49:37.646Z,101835.31
2023-02-19T05:52:05.251Z,101837.13
2023-02-19T05:54:32.270Z,101839.78
2023-02-19T05:56:59.110Z,101829.84
2023-02-19T05:59:26.756Z,101849.63
2023-02-19T06:01:55.823Z,101848.78
2023-02-19T06:04:23.471Z,101848.94
2023-02-19T06:06:50.475Z,101854.25
2023-02-19T06:09:17.221Z,101852.56
2023-02-19T06:11:44.225Z,101877.19
2023-02-19T06:14:13.552Z,101864.88
2023-02-19T06:16:40.924Z,101872.84
2023-02-19T06:19:09.757Z,101877.19
2023-02-19T06:21:36.603Z,101874.81
2023-02-19T06:24:07.292Z,101875.66
2023-02-19T06:26:34.161Z,101881.97
2023-02-19T06:29:01.038Z,101887.44
2023-02-19T06:31:28.001Z,101903.38
2023-02-19T06:33:55.434Z,101898.75
2023-02-19T06:36:24.047Z,101912.19
2023-02-19T06:38:50.974Z,101913.16
2023-02-19T06:41:18.118Z,101912.38
2023-02-19T06:43:46.511Z,101916.66
2023-02-19T06:46:13.691Z,101917.69
2023-02-19T06:48:42.050Z,101916.66
2023-02-19T06:51:12.981Z,101920.16
2023-02-19T06:53:41.414Z,101920.16
2023-02-19T06:56:25.189Z,101918.47
2023-02-19T06:58:52.431Z,101928.31
2023-02-19T07:01:19.281Z,101935.44
2023-02-19T07:03:46.266Z,101932.78
2023-02-19T07:06:13.040Z,101942.59
2023-02-19T07:08:41.275Z,101947.06
2023-02-19T07:11:08.258Z,101946.38
2023-02-19T07:13:35.114Z,101953.50
2023-02-19T07:16:04.302Z,101959.66
2023-02-19T07:18:31.777Z,101963.00
2023-02-19T07:21:03.161Z,101968.63
2023-02-19T07:23:30.020Z,101968.63
2023-02-19T07:25:58.340Z,101978.41
2023-02-19T07:28:25.159Z,101986.38
2023-02-19T07:30:52.011Z,101993.38
2023-02-19T07:33:18.974Z,101997.84
2023-02-19T07:35:47.002Z,101995.06
2023-02-19T07:38:16.338Z,102006.53
2023-02-19T07:40:43.103Z,102005.84
2023-02-19T07:43:11.364Z,102011.97
2023-02-19T07:45:38.100Z,102016.59
2023-02-19T07:48:05.061Z,102023.75
2023-02-19T07:50:31.754Z,102021.09
2023-02-19T07:52:58.744Z,102020.94
2023-02-19T07:55:25.651Z,102023.75
2023-02-19T07:57:52.455Z,102016.59
2023-02-19T08:00:20.730Z,102025.41
2023-02-19T08:03:07.792Z,102029.75
2023-02-19T08:05:38.957Z,102028.91
2023-02-19T08:08:06.602Z,102036.03
2023-02-19T08:10:51.781Z,102037.72
2023-02-19T08:13:19.351Z,102035.06
2023-02-19T08:15:47.944Z,102030.59
2023-02-19T08:18:16.617Z,102038.56
2023-02-19T08:20:46.022Z,102048.22
2023-02-19T08:23:14.479Z,102046.38
2023-02-19T08:25:42.042Z,102054.22
2023-02-19T08:28:10.948Z,102053.22
2023-02-19T08:30:39.164Z,102050.56
2023-02-19T08:33:08.972Z,102057.53
2023-02-19T08:35:36.788Z,102056.53
2023-02-19T08:38:05.492Z,102067.19
2023-02-19T08:40:33.241Z,102060.88
2023-02-19T08:43:03.224Z,102075.84
2023-02-19T08:45:30.202Z,102075.00
2023-02-19T08:47:57.437Z,102082.84
2023-02-19T08:50:26.386Z,102088.84
2023-02-19T08:52:53.134Z,102100.28
2023-02-19T08:55:20.691Z,102100.28
2023-02-19T08:57:49.732Z,102101.97
2023-02-19T09:00:17.750Z,102106.28
2023-02-19T09:02:47.492Z,102102.50
2023-02-19T09:05:14.768Z,102093.53
2023-02-19T09:07:48.607Z,102096.03
2023-02-19T09:10:17.845Z,102101.19
2023-02-19T09:12:47.664Z,102097.69
2023-02-19T09:15:14.551Z,102097.56
2023-02-19T09:17:43.802Z,102105.38
2023-02-19T09:20:11.084Z,102104.25
2023-02-19T09:22:37.931Z,102117.22
2023-02-19T09:25:12.181Z,102116.25
2023-02-19T09:27:38.921Z,102124.91
2023-02-19T09:30:06.507Z,102131.22
2023-02-19T09:32:33.844Z,102140.84
2023-02-19T09:35:00.596Z,102141.53
2023-02-19T09:37:28.068Z,102145.72
2023-02-19T09:39:55.439Z,102153.41
2023-02-19T09:42:25.591Z,102150.72
2023-02-19T09:44:55.295Z,102161.19
2023-02-19T09:47:24.526Z,102164.88
2023-02-19T09:49:55.348Z,102178.00
2023-02-19T09:52:30.177Z,102181.50
2023-02-19T09:55:01.479Z,102186.94
2023-02-19T09:57:32.487Z,102182.19
2023-02-19T10:00:04.820Z,102187.34
2023-02-19T10:02:31.834Z,102197.84
2023-02-19T10:04:59.113Z,102200.03
2023-02-19T10:07:33.291Z,102208.72
2023-02-19T10:10:03.556Z,102218.03
2023-02-19T10:12:32.392Z,102221.41
2023-02-19T10:15:05.777Z,102230.88
2023-02-19T10:17:34.718Z,102224.56
2023-02-19T10:20:05.210Z,102235.91
2023-02-19T10:22:34.064Z,102233.94
2023-02-19T10:25:00.875Z,102233.63
2023-02-19T10:27:31.289Z,102233.63
2023-02-19T10:29:59.039Z,102238.66
2023-02-19T10:32:27.615Z,102245.66
2023-02-19T10:35:09.449Z,102254.28
2023-02-19T10:37:43.050Z,102258.63
2023-02-19T10:40:16.497Z,102268.44
2023-02-19T10:42:47.807Z,102273.09
2023-02-19T10:45:20.246Z,102264.09
2023-02-19T10:47:48.213Z,102279.91
2023-02-19T10:50:23.836Z,102285.25
2023-02-19T10:52:53.881Z,102271.09
2023-02-19T10:55:32.739Z,102271.63
2023-02-19T10:58:23.557Z,102274.16
2023-02-19T11:01:08.415Z,102279.47
2023-02-19T11:03:35.627Z,102273.13
2023-02-19T11:06:03.861Z,102266.81
2023-02-19T11:08:45.304Z,102262.34
2023-02-19T11:11:26.462Z,102264.56
2023-02-19T11:13:58.366Z,102252.91
2023-02-19T11:16:38.717Z,102252.75
2023-02-19T11:19:05.821Z,102253.75
2023-02-19T11:21:33.597Z,102255.28
2023-02-19T11:24:03.999Z,102252.59
2023-02-19T11:26:38.126Z,102251.63
2023-02-19T11:29:19.841Z,102253.44
2023-02-19T11:31:46.692Z,102247.13
2023-02-19T11:34:30.169Z,102253.97
2023-02-19T11:37:13.319Z,102259.97
2023-02-19T11:39:42.222Z,102256.31
2023-02-19T11:42:33.805Z,102255.19
2023-02-19T11:45:16.846Z,102266.50
2023-02-19T11:48:21.564Z,102274.50
2023-02-19T11:51:13.746Z,102281.63
2023-02-19T11:53:48.745Z,102277.00
2023-02-19T11:56:19.581Z,102285.00
2023-02-19T11:59:07.318Z,102284.28
2023-02-19T12:02:21.919Z,102282.47
2023-02-19T12:05:17.973Z,102280.81
2023-02-19T12:08:29.889Z,102278.47
2023-02-19T12:11:11.679Z,102273.28
2023-02-19T12:13:55.530Z,102285.75
2023-02-19T12:16:27.517Z,102287.06
2023-02-19T12:19:12.086Z,102290.84
2023-02-19T12:21:51.533Z,102292.03
2023-02-19T12:24:42.094Z,102286.84
2023-02-19T12:27:21.934Z,102295.81
2023-02-19T12:30:03.024Z,102286.28
2023-02-19T12:32:46.584Z,102282.78
2023-02-19T12:35:59.390Z,102283.78
2023-02-19T12:38:35.152Z,102290.97
2023-02-19T12:41:21.536Z,102290.78
2023-02-19T12:43:55.559Z,102279.63
2023-02-19T12:46:28.246Z,102284.25
2023-02-19T12:49:02.507Z,102294.06
2023-02-19T12:51:35.984Z,102304.69
2023-02-19T12:54:11.258Z,102298.88
2023-02-19T12:56:42.317Z,102295.50
2023-02-19T12:59:14.588Z,102304.47
2023-02-19T13:01:49.408Z,102304.47
2023-02-19T13:04:28.117Z,102312.31
2023-02-19T13:07:01.169Z,102309.50
2023-02-19T13:09:36.469Z,102317.41
2023-02-19T13:12:08.390Z,102320.34
2023-02-19T13:14:40.224Z,102321.19
2023-02-19T13:17:19.963Z,102327.50
2023-02-19T13:19:49.895Z,102333.66
2023-02-19T13:22:44.043Z,102347.78
2023-02-19T13:25:14.447Z,102347.94
2023-02-19T13:27:57.787Z,102340.97
2023-02-19T13:30:36.314Z,102346.28
2023-02-19T13:33:17.211Z,102355.91
2023-02-19T13:36:15.791Z,102354.09
2023-02-19T13:38:45.428Z,102354.28
2023-02-19T13:41:26.521Z,102359.41
2023-02-19T13:43:59.423Z,102363.06
2023-02-19T13:46:36.069Z,102364.75
2023-02-19T13:49:40.067Z,102368.25
2023-02-19T13:52:36.053Z,102363.91
2023-02-19T13:55:36.332Z,102360.72
2023-02-19T13:58:52.160Z,102364.03
2023-02-19T14:01:40.624Z,102373.88
2023-02-19T14:04:10.412Z,102377.09
2023-02-19T14:07:10.445Z,102376.56
2023-02-19T14:09:46.170Z,102386.97
2023-02-19T14:12:21.044Z,102381.25
2023-02-19T14:14:48.580Z,102388.53
2023-02-19T14:17:38.674Z,102395.53
2023-02-19T14:20:40.681Z,102395.94
2023-02-19T14:23:16.741Z,102404.22
2023-02-19T14:25:58.253Z,102400.47
2023-02-19T14:28:36.254Z,102405.53
2023-02-19T14:31:10.813Z,102408.31
2023-02-19T14:33:43.526Z,102406.03
2023-02-19T14:36:19.658Z,102408.16
2023-02-19T14:38:50.364Z,102398.09
2023-02-19T14:41:18.285Z,102392.38
2023-02-19T14:43:46.770Z,102397.13
2023-02-19T14:46:22.373Z,102390.97
2023-02-19T14:48:50.781Z,102386.22
2023-02-19T14:51:27.008Z,102381.19
2023-02-19T14:53:55.446Z,102384.28
2023-02-19T14:56:25.908Z,102382.34
2023-02-19T14:59:23.923Z,102379.09
2023-02-19T15:01:55.393Z,102360.66
2023-02-19T15:04:26.292Z,102356.09
2023-02-19T15:06:56.666Z,102358.31
2023-02-19T15:09:31.968Z,102346.44
2023-02-19T15:11:59.690Z,102355.69
2023-02-19T15:14:30.622Z,102359.56
2023-02-19T15:17:01.423Z,102361.81
2023-02-19T15:19:34.993Z,102357.75
2023-02-19T15:22:02.574Z,102348.13
2023-02-19T15:24:29.962Z,102354.69
2023-02-19T15:26:56.965Z,102373.56
2023-02-19T15:29:26.237Z,102378.84
2023-02-19T15:31:54.591Z,102381.50
2023-02-19T15:34:23.827Z,102387.09
2023-02-19T15:36:56.837Z,102392.41
2023-02-19T15:39:25.642Z,102394.06
2023-02-19T15:41:58.526Z,102403.00
2023-02-19T15:44:44.239Z,102418.09
2023-02-19T15:47:20.368Z,102421.03
2023-02-19T15:49:53.283Z,102423.81
2023-02-19T15:52:31.694Z,102422.13
2023-02-19T15:55:03.930Z,102424.78
2023-02-19T15:57:35.651Z,102423.81
2023-02-19T16:00:10.797Z,102420.03
2023-02-19T16:02:37.919Z,102433.03
2023-02-19T16:05:12.719Z,102424.81
2023-02-19T16:07:42.021Z,102427.31
2023-02-19T16:10:20.769Z,102432.47
2023-02-19T16:12:58.566Z,102437.78
2023-02-19T16:15:25.199Z,102431.78
2023-02-19T16:17:54.542Z,102436.25
2023-02-19T16:20:23.993Z,102435.28
2023-02-19T16:22:56.736Z,102446.72
2023-02-19T16:25:30.055Z,102452.75
2023-02-19T16:27:58.757Z,102462.66
2023-02-19T16:30:34.169Z,102470.63
2023-02-19T16:33:36.992Z,102482.06
2023-02-19T16:36:30.609Z,102472.41
2023-02-19T16:39:20.584Z,102481.66
2023-02-19T16:42:12.852Z,102479.25
2023-02-19T16:44:39.594Z,102486.38
2023-02-19T16:47:20.407Z,102483.16
2023-02-19T16:49:47.138Z,102482.31
2023-02-19T16:52:15.603Z,102486.06
2023-02-19T16:54:44.034Z,102478.13
2023-02-19T16:57:10.990Z,102475.34
2023-02-19T16:59:37.832Z,102480.50
2023-02-19T17:02:05.619Z,102490.28
2023-02-19T17:04:32.651Z,102492.94
2023-02-19T17:06:59.514Z,102495.84
2023-02-19T17:09:26.279Z,102500.31
2023-02-19T17:11:54.461Z,102495.84
2023-02-19T17:14:21.189Z,102495.00
2023-02-19T17:16:48.279Z,102498.66
2023-02-19T17:19:18.168Z,102505.78
2023-02-19T17:21:46.729Z,102502.28
2023-02-19T17:24:14.224Z,102497.09
2023-02-19T17:26:41.524Z,102504.47
2023-02-19T17:29:14.986Z,102507.41
2023-02-19T17:31:41.977Z,102505.00
2023-02-19T17:34:08.909Z,102508.38
2023-02-19T17:36:37.883Z,102507.41
2023-02-19T17:39:08.791Z,102510.06
2023-02-19T17:41:35.958Z,102509.22
2023-02-19T17:44:02.667Z,102509.47
2023-02-19T17:46:30.912Z,102505.97
2023-02-19T17:48:57.775Z,102500.00
2023-02-19T17:51:24.655Z,102506.28
2023-02-19T17:53:51.373Z,102506.28
2023-02-19T17:56:20.474Z,102509.88
2023-02-19T17:58:47.489Z,102516.16
2023-02-19T18:01:14.881Z,102522.44
2023-02-19T18:03:43.543Z,102523.41
2023-02-19T18:06:11.340Z,102529.44
2023-02-19T18:08:38.199Z,102541.72
2023-02-19T18:11:07.111Z,102540.88
2023-02-19T18:13:33.949Z,102534.84
2023-02-19T18:16:00.929Z,102537.66
2023-02-19T18:18:27.703Z,102536.81
2023-02-19T18:20:55.927Z,102535.28
2023-02-19T18:23:22.900Z,102537.19
2023-02-19T18:25:49.870Z,102524.91
2023-02-19T18:28:16.769Z,102536.53
2023-02-19T18:30:43.762Z,102533.88
2023-02-19T18:33:13.225Z,102533.16
2023-02-19T18:35:40.341Z,102530.75
2023-02-19T18:38:08.486Z,102532.44
2023-02-19T18:40:35.448Z,102533.56
2023-02-19T18:43:02.411Z,102540.66
2023-02-19T18:45:29.797Z,102541.63
2023-02-19T18:47:56.830Z,102522.47
2023-02-19T18:50:23.555Z,102519.94
2023-02-19T18:52:53.377Z,102515.78
2023-02-19T18:55:21.491Z,102524.56
2023-02-19T18:57:48.638Z,102522.75
2023-02-19T19:00:18.265Z,102523.72
2023-02-19T19:02:49.700Z,102529.88
2023-02-19T19:05:21.380Z,102539.63
2023-02-19T19:07:48.411Z,102543.38
2023-02-19T19:10:15.346Z,102560.13
2023-02-19T19:12:43.555Z,102548.44
2023-02-19T19:15:10.371Z,102550.38
2023-02-19T19:17:37.232Z,102545.31
2023-02-19T19:20:04.310Z,102540.28
2023-02-19T19:22:31.044Z,102542.22
2023-02-19T19:24:57.772Z,102551.97
2023-02-19T19:27:24.564Z,102546.97
2023-02-19T19:29:52.660Z,102533.81
2023-02-19T19:32:21.511Z,102541.91
2023-02-19T19:34:48.409Z,102541.06
2023-02-19T19:37:15.315Z,102529.75
2023-02-19T19:39:42.876Z,102533.38
2023-02-19T19:42:09.886Z,102550.25
2023-02-19T19:44:36.733Z,102546.88
2023-02-19T19:47:05.044Z,102545.31
2023-02-19T19:49:32.018Z,102550.06
2023-02-19T19:52:01.087Z,102551.25
2023-02-19T19:54:28.358Z,102563.94
2023-02-19T19:56:55.635Z,102553.47
2023-02-19T19:59:23.150Z,102560.69
2023-02-19T20:01:51.563Z,102560.00
2023-02-19T20:04:20.733Z,102559.63
2023-02-19T20:06:47.839Z,102566.03
2023-02-19T20:09:15.156Z,102563.75
2023-02-19T20:11:45.964Z,102565.94
2023-02-19T20:14:13.500Z,102566.19
2023-02-19T20:16:40.251Z,102566.56
2023-02-19T20:19:07.508Z,102555.50
2023-02-19T20:21:35.720Z,102557.44
2023-02-19T20:24:02.966Z,102555.91
2023-02-19T20:26:30.464Z,102553.38
2023-02-19T20:28:58.312Z,102549.75
2023-02-19T20:31:25.912Z,102552.63
2023-02-19T20:33:52.751Z,102546.66
2023-02-19T20:36:20.195Z,102548.56
2023-02-19T20:38:49.576Z,102542.56
2023-02-19T20:41:16.441Z,102541.03
2023-02-19T20:43:43.235Z,102542.09
2023-02-19T20:46:10.892Z,102558.94
2023-02-19T20:48:38.023Z,102562.66
2023-02-19T20:51:05.103Z,102566.44
2023-02-19T20:53:32.151Z,102566.53
2023-02-19T20:56:00.769Z,102571.13
2023-02-19T20:58:27.978Z,102572.22
2023-02-19T21:00:55.824Z,102570.53
2023-02-19T21:03:22.825Z,102570.75
2023-02-19T21:05:49.732Z,102558.59
2023-02-19T21:08:17.413Z,102552.75
2023-02-19T21:10:45.802Z,102555.50
2023-02-19T21:13:14.228Z,102558.25
2023-02-19T21:15:41.151Z,102544.44
2023-02-19T21:18:08.032Z,102537.47
2023-02-19T21:20:34.979Z,102540.22
2023-02-19T21:23:02.069Z,102532.41
2023-02-19T21:25:28.899Z,102530.03
2023-02-19T21:27:55.683Z,102531.09
2023-02-19T21:30:24.102Z,102538.34
2023-02-19T21:32:51.145Z,102542.06
2023-02-19T21:35:18.071Z,102533.28
2023-02-19T21:37:44.893Z,102534.25
2023-02-19T21:40:12.932Z,102530.88
2023-02-19T21:42:39.875Z,102541.72
2023-02-19T21:45:07.594Z,102535.69
2023-02-19T21:47:35.761Z,102534.00
2023-02-19T21:50:02.722Z,102539.56
2023-02-19T21:52:31.024Z,102533.66
2023-02-19T21:54:58.364Z,102540.84
2023-02-19T21:57:25.246Z,102538.34
2023-02-19T21:59:52.023Z,102525.13
2023-02-19T22:02:22.392Z,102534.03
2023-02-19T22:04:53.714Z,102535.94
2023-02-19T22:07:21.682Z,102531.59
2023-02-19T22:09:49.571Z,102533.56
2023-02-19T22:12:16.526Z,102534.63
2023-02-19T22:14:43.351Z,102523.31
2023-02-19T22:17:13.237Z,102526.91
2023-02-19T22:19:40.027Z,102541.09
2023-02-19T22:22:12.368Z,102540.28
2023-02-19T22:24:39.087Z,102544.00
2023-02-19T22:27:05.911Z,102539.56
2023-02-19T22:29:32.694Z,102530.66
2023-02-19T22:31:59.822Z,102535.97
2023-02-19T22:34:26.624Z,102540.41
2023-02-19T22:36:53.464Z,102537.03
2023-02-19T22:39:24.143Z,102531.00
2023-02-19T22:41:51.650Z,102525.13
2023-02-19T22:44:19.217Z,102524.41
2023-02-19T22:46:48.448Z,102510.59
2023-02-19T22:49:15.748Z,102517.78
2023-02-19T22:51:49.916Z,102525.09
2023-02-19T22:54:17.010Z,102523.44
2023-02-19T22:56:45.203Z,102521.63
2023-02-19T22:59:11.941Z,102523.31
2023-02-19T23:01:38.863Z,102516.59
2023-02-19T23:04:05.730Z,102519.34
2023-02-19T23:06:34.588Z,102516.13
2023-02-19T23:09:05.038Z,102508.19
2023-02-19T23:11:33.735Z,102499.63
2023-02-19T23:14:02.170Z,102500.59
2023-02-19T23:16:35.919Z,102506.84
2023-02-19T23:19:03.608Z,102496.25
2023-02-19T23:21:30.711Z,102487.38
2023-02-19T23:23:57.537Z,102484.75
2023-02-19T23:26:24.243Z,102475.13
2023-02-19T23:28:51.149Z,102473.47
2023-02-19T23:31:19.425Z,102472.63
2023-02-19T23:33:46.261Z,102464.56
2023-02-19T23:36:13.973Z,102474.28
2023-02-19T23:38:43.676Z,102489.31
2023-02-19T23:41:11.666Z,102486.69
2023-02-19T23:43:38.926Z,102489.19
2023-02-19T23:46:06.000Z,102479.44
2023-02-19T23:48:34.557Z,102480.28
2023-02-19T23:51:02.068Z,102482.09
2023-02-19T23:53:28.904Z,102482.09
2023-02-19T23:55:55.712Z,102490.75
2023-02-19T23:58:22.440Z,102477.44
